Time;durP1;ratioP1;P1;durP2;ratioP2;P2;SDS_P1;SDS_P2;PMS_P1;PMS_P2;Temp;Humidity;BMP_temperature;BMP_pressure;BME280_temperature;BME280_humidity;BME280_pressure;Samples;Min_cycle;Max_cycle;Signal;HPM_P1;HPM_P2
2021/07/23 00:01:51;;;;;;;7.82;4.32;;;;;;;19.42;49.60;101977.38;4910619;28;124428;-64
2021/07/23 00:04:18;;;;;;;7.60;4.55;;;;;;;19.40;49.61;101973.94;4912760;28;123996;-64
2021/07/23 00:06:45;;;;;;;7.25;4.78;;;;;;;19.37;49.78;101982.22;4915280;28;119444;-64
2021/07/23 00:09:12;;;;;;;6.68;4.57;;;;;;;19.34;49.73;101985.09;4911394;28;119091;-64
2021/07/23 00:11:39;;;;;;;7.10;4.53;;;;;;;19.32;49.83;101981.66;4910730;28;124256;-64
2021/07/23 00:14:07;;;;;;;7.47;4.28;;;;;;;19.30;49.93;101983.56;4904119;28;123761;-64
2021/07/23 00:16:34;;;;;;;7.60;4.35;;;;;;;19.28;49.89;101975.59;4911668;28;119512;-64
2021/07/23 00:19:01;;;;;;;7.03;4.25;;;;;;;19.28;50.02;101974.75;4908981;28;119622;-64
2021/07/23 00:21:28;;;;;;;7.63;4.40;;;;;;;19.26;50.10;101973.00;4910661;28;125531;-64
2021/07/23 00:23:55;;;;;;;6.10;4.22;;;;;;;19.24;49.97;101964.19;4909872;28;124112;-64
2021/07/23 00:26:23;;;;;;;6.47;4.38;;;;;;;19.23;49.98;101973.22;4910248;28;120216;-64
2021/07/23 00:28:50;;;;;;;5.70;3.88;;;;;;;19.22;50.08;101974.16;4900640;28;120080;-64
2021/07/23 00:31:18;;;;;;;7.72;4.25;;;;;;;19.21;50.18;101969.78;4912749;28;124003;-64
2021/07/23 00:33:45;;;;;;;6.65;4.22;;;;;;;19.20;50.20;101973.41;4926301;28;123843;-64
2021/07/23 00:36:12;;;;;;;7.22;4.35;;;;;;;19.18;50.17;101974.47;4903021;28;120018;-64
2021/07/23 00:38:39;;;;;;;5.57;3.92;;;;;;;19.16;50.20;101971.88;4920504;28;118660;-64
2021/07/23 00:41:06;;;;;;;7.22;4.75;;;;;;;19.16;50.35;101971.03;4919094;28;124744;-64
2021/07/23 00:43:34;;;;;;;7.03;4.50;;;;;;;19.13;50.29;101977.44;4910328;28;124522;-64
2021/07/23 00:46:02;;;;;;;7.20;4.40;;;;;;;19.11;50.04;101973.13;4912829;28;119497;-64
2021/07/23 00:48:29;;;;;;;6.35;4.35;;;;;;;19.10;50.28;101976.75;4907694;28;119374;-64
2021/07/23 00:50:57;;;;;;;7.72;4.18;;;;;;;19.07;50.48;101972.47;4913103;28;124635;-64
2021/07/23 00:53:25;;;;;;;6.05;4.15;;;;;;;19.04;50.30;101967.28;4912584;28;123086;-64
2021/07/23 00:55:58;;;;;;;6.30;4.43;;;;;;;19.01;50.34;101967.47;4913538;28;119786;-64
2021/07/23 00:58:29;;;;;;;7.10;4.47;;;;;;;18.98;50.29;101968.53;4926074;28;118370;-64
2021/07/23 01:01:00;;;;;;;7.03;4.10;;;;;;;18.96;50.42;101964.22;4931409;28;99051;-64
2021/07/23 01:03:32;;;;;;;6.75;4.25;;;;;;;18.94;50.54;101960.75;4903525;28;124038;-64
2021/07/23 01:06:01;;;;;;;6.90;4.25;;;;;;;18.93;50.48;101953.66;4906590;28;119412;-64
2021/07/23 01:08:29;;;;;;;6.38;4.47;;;;;;;18.92;50.55;101960.84;4935921;28;118727;-64
2021/07/23 01:10:56;;;;;;;9.10;4.45;;;;;;;18.91;50.49;101955.56;4912338;28;124278;-64
2021/07/23 01:13:39;;;;;;;9.30;4.65;;;;;;;18.90;50.50;101961.91;4914635;28;123644;-64
2021/07/23 01:16:07;;;;;;;7.15;4.40;;;;;;;18.87;50.49;101960.28;4915275;28;120816;-64
2021/07/23 01:18:35;;;;;;;7.30;4.45;;;;;;;18.84;50.61;101950.59;4911480;28;119894;-64
2021/07/23 01:21:03;;;;;;;7.80;4.45;;;;;;;18.81;50.80;101950.78;4916691;28;123407;-64
2021/07/23 01:23:35;;;;;;;6.95;5.03;;;;;;;18.76;51.01;101952.88;4911779;28;123038;-64
2021/07/23 01:26:09;;;;;;;9.27;4.60;;;;;;;18.72;50.90;101951.31;4912194;28;118774;-64
2021/07/23 01:28:37;;;;;;;8.27;4.80;;;;;;;18.68;50.87;101955.16;4912410;28;119406;-64
2021/07/23 01:31:08;;;;;;;9.27;5.03;;;;;;;18.65;51.09;101950.00;4912035;28;123089;-64
2021/07/23 01:33:37;;;;;;;8.50;5.28;;;;;;;18.61;51.25;101945.75;4909457;28;124451;-65
2021/07/23 01:36:07;;;;;;;8.95;4.85;;;;;;;18.57;51.32;101946.91;4909886;28;119313;-64
2021/07/23 01:38:43;;;;;;;9.33;5.00;;;;;;;18.54;51.21;101947.09;4923945;28;121692;-64
2021/07/23 01:41:12;;;;;;;8.60;4.80;;;;;;;18.51;51.31;101941.91;4917834;28;123345;-64
2021/07/23 01:43:40;;;;;;;8.85;4.68;;;;;;;18.48;51.39;101945.66;4938575;28;123085;-64
2021/07/23 01:46:07;;;;;;;7.65;4.85;;;;;;;18.45;51.29;101944.00;4932043;28;119541;-64
2021/07/23 01:48:43;;;;;;;8.80;4.65;;;;;;;18.42;51.31;101944.22;4914667;28;119616;-64
2021/07/23 01:51:23;;;;;;;6.65;4.68;;;;;;;18.40;51.46;101943.44;4916923;28;123841;-64
2021/07/23 01:53:51;;;;;;;8.55;5.25;;;;;;;18.37;51.46;101951.66;4908716;28;124118;-64
2021/07/23 01:56:19;;;;;;;8.63;5.30;;;;;;;18.35;51.52;101948.22;4911255;28;118976;-64
2021/07/23 01:58:47;;;;;;;7.80;4.85;;;;;;;18.33;51.68;101950.13;4912560;28;119931;-64
2021/07/23 02:01:15;;;;;;;8.13;4.72;;;;;;;18.31;51.68;101957.41;4911537;28;123596;-64
2021/07/23 02:03:54;;;;;;;7.63;4.57;;;;;;;18.30;51.70;101947.63;4926312;28;123004;-64
2021/07/23 02:06:21;;;;;;;8.43;5.32;;;;;;;18.30;51.96;101944.94;4908790;28;120579;-64
2021/07/23 02:08:49;;;;;;;7.78;5.03;;;;;;;18.29;51.83;101949.44;4911341;28;119348;-64
2021/07/23 02:11:16;;;;;;;6.95;4.50;;;;;;;18.29;51.83;101948.59;4910655;28;123281;-64
2021/07/23 02:13:44;;;;;;;8.98;5.43;;;;;;;18.28;51.81;101946.84;4910640;28;123483;-64
2021/07/23 02:16:11;;;;;;;7.93;5.30;;;;;;;18.26;51.79;101946.06;4910701;28;119696;-64
2021/07/23 02:18:39;;;;;;;8.57;5.28;;;;;;;18.24;51.94;101946.16;4910706;28;118089;-64
2021/07/23 02:21:14;;;;;;;;;;;;;;;18.23;51.25;101947.13;4912281;28;126968;-64
2021/07/23 02:23:41;;;;;;;8.65;4.78;;;;;;;18.24;51.47;101945.31;4884100;28;123329;-64
2021/07/23 02:26:19;;;;;;;9.75;5.25;;;;;;;18.21;51.71;101940.13;4922365;28;119013;-64
2021/07/23 02:28:49;;;;;;;8.10;5.22;;;;;;;18.17;51.73;101943.94;4914709;28;119327;-64
2021/07/23 02:31:16;;;;;;;10.45;5.38;;;;;;;18.13;51.98;101937.91;4924032;28;124246;-64
2021/07/23 02:33:56;;;;;;;9.00;5.60;;;;;;;18.11;52.06;101933.59;4925931;28;123999;-64
2021/07/23 02:36:33;;;;;;;7.72;5.25;;;;;;;18.08;51.99;101932.81;4926060;28;120981;-64
2021/07/23 02:39:03;;;;;;;8.35;5.30;;;;;;;18.05;52.07;101941.03;4897582;28;118161;-64
2021/07/23 02:41:35;;;;;;;8.52;5.38;;;;;;;18.02;52.08;101930.47;4896166;28;123709;-64
2021/07/23 02:44:03;;;;;;;9.65;5.50;;;;;;;17.99;51.90;101930.69;4925909;28;123648;-64
2021/07/23 02:46:31;;;;;;;9.63;5.50;;;;;;;17.95;52.29;101928.25;4915928;28;119004;-64
2021/07/23 02:48:59;;;;;;;8.98;5.28;;;;;;;17.92;52.17;101929.31;4927359;28;118154;-64
2021/07/23 02:51:30;;;;;;;9.43;5.45;;;;;;;17.90;52.53;101932.06;4910389;28;124701;-64
2021/07/23 02:54:01;;;;;;;12.02;5.63;;;;;;;17.89;52.65;101929.47;4911265;28;123567;-64
2021/07/23 02:56:29;;;;;;;9.68;5.53;;;;;;;17.87;52.54;101928.72;4916915;28;120089;-64
2021/07/23 02:58:58;;;;;;;9.75;5.30;;;;;;;17.86;52.64;101929.69;4912001;28;120184;-64
2021/07/23 03:01:27;;;;;;;8.35;5.40;;;;;;;17.83;52.61;101930.66;4918939;28;124372;-64
2021/07/23 03:03:57;;;;;;;11.05;5.90;;;;;;;17.83;52.64;101935.19;4908939;28;123078;-64
2021/07/23 03:06:29;;;;;;;11.32;5.72;;;;;;;17.80;52.59;101924.63;4897352;28;121286;-64
2021/07/23 03:08:58;;;;;;;10.07;5.68;;;;;;;17.78;52.60;101926.53;4920010;28;119157;-64
2021/07/23 03:11:25;;;;;;;9.20;6.03;;;;;;;17.78;52.71;101926.53;4918639;28;123337;-64
2021/07/23 03:14:05;;;;;;;9.48;5.97;;;;;;;17.78;52.55;101923.84;4930745;28;123826;-64
2021/07/23 03:16:42;;;;;;;10.88;5.80;;;;;;;17.75;52.65;101921.38;4931695;28;118341;-64
2021/07/23 03:19:10;;;;;;;10.68;5.93;;;;;;;17.76;52.48;101923.06;4931303;28;118912;-64
2021/07/23 03:21:38;;;;;;;10.35;5.93;;;;;;;17.74;52.68;101915.13;4915834;28;123442;-64
2021/07/23 03:24:10;;;;;;;9.73;5.38;;;;;;;17.74;52.50;101914.28;4913099;28;124665;-64
2021/07/23 03:26:37;;;;;;;10.43;5.72;;;;;;;17.73;52.52;101917.91;4913062;28;120100;-64
2021/07/23 03:29:08;;;;;;;9.07;5.57;;;;;;;17.68;52.66;101908.31;4921822;28;118700;-64
2021/07/23 03:31:36;;;;;;;9.00;5.90;;;;;;;17.66;52.42;101907.53;4903845;28;123175;-64
2021/07/23 03:34:14;;;;;;;10.75;6.15;;;;;;;17.63;52.54;101907.72;4913453;28;124302;-64
2021/07/23 03:36:57;;;;;;;9.73;5.95;;;;;;;17.59;52.66;101911.50;4913602;28;119712;-64
2021/07/23 03:39:48;;;;;;;11.43;5.88;;;;;;;17.56;52.81;101900.13;4915077;28;118664;-64
2021/07/23 03:42:21;;;;;;;10.25;6.28;;;;;;;17.52;52.80;101899.44;4912353;28;123545;-64
2021/07/23 03:45:09;;;;;;;11.57;6.30;;;;;;;17.49;52.89;101900.47;4921970;28;124059;-64
2021/07/23 03:47:37;;;;;;;10.10;5.63;;;;;;;17.47;52.99;101897.00;4903752;28;120423;-64
2021/07/23 03:50:04;;;;;;;9.52;5.82;;;;;;;17.45;52.98;101903.44;4913876;28;119727;-64
2021/07/23 03:52:35;;;;;;;8.50;5.32;;;;;;;17.43;52.95;101905.31;4912898;28;123405;-64
2021/07/23 03:55:23;;;;;;;11.05;6.13;;;;;;;17.42;53.05;101898.22;4912856;28;125205;-64
2021/07/23 03:57:50;;;;;;;9.65;5.95;;;;;;;17.39;53.02;101893.06;4910154;28;118561;-64
2021/07/23 04:00:18;;;;;;;12.55;6.05;;;;;;;17.37;53.07;101894.97;4919543;28;119376;-64
2021/07/23 04:02:50;;;;;;;10.18;5.75;;;;;;;17.33;53.05;101899.63;4905466;28;123409;-64
2021/07/23 04:05:18;;;;;;;12.52;6.53;;;;;;;17.30;53.32;101889.09;4929723;28;123128;-64
2021/07/23 04:07:45;;;;;;;9.48;5.38;;;;;;;17.28;53.22;101886.50;4916243;28;119000;-64
2021/07/23 04:10:13;;;;;;;9.48;5.78;;;;;;;17.26;53.17;101888.41;4915614;28;119146;-64
2021/07/23 04:12:41;;;;;;;10.75;5.68;;;;;;;17.26;53.28;101898.25;4920301;28;124826;-64
2021/07/23 04:15:10;;;;;;;11.85;6.10;;;;;;;17.25;53.25;101901.88;4910233;28;123667;-64
2021/07/23 04:17:57;;;;;;;10.40;5.72;;;;;;;17.24;53.22;101906.38;4914181;28;119541;-64
2021/07/23 04:20:25;;;;;;;10.02;5.97;;;;;;;17.22;53.34;101902.91;4913062;28;118530;-64
2021/07/23 04:22:54;;;;;;;11.15;5.68;;;;;;;17.21;53.42;101906.53;4897859;28;123380;-64
2021/07/23 04:25:22;;;;;;;9.63;5.75;;;;;;;17.19;53.48;101908.44;4926404;28;124203;-64
2021/07/23 04:27:49;;;;;;;8.52;5.25;;;;;;;17.18;53.48;101901.38;4913096;28;119377;-64
2021/07/23 04:30:23;;;;;;;8.38;5.18;;;;;;;17.17;53.59;101904.97;4913030;28;121545;-64
2021/07/23 04:33:13;;;;;;;9.65;5.55;;;;;;;17.17;53.57;101904.13;4913867;28;125051;-64
2021/07/23 04:36:14;;;;;;;10.18;6.00;;;;;;;17.16;53.61;101897.91;4914150;28;123719;-64
2021/07/23 04:38:42;;;;;;;9.50;4.97;;;;;;;17.15;53.59;101895.31;4915424;28;120284;-64
2021/07/23 04:41:11;;;;;;;12.00;6.07;;;;;;;17.15;53.74;101896.16;4913951;28;120245;-64
2021/07/23 04:43:44;;;;;;;11.20;6.50;;;;;;;17.15;54.08;101889.97;4912340;28;123262;-64
2021/07/23 04:46:12;;;;;;;10.45;5.75;;;;;;;17.15;53.84;101885.47;4910990;28;123983;-64
2021/07/23 04:48:39;;;;;;;10.07;6.13;;;;;;;17.16;54.09;101892.56;4914231;28;119596;-64
2021/07/23 04:51:33;;;;;;;10.50;5.85;;;;;;;17.18;53.92;101889.78;4913598;28;120496;-64
2021/07/23 04:54:26;;;;;;;9.40;6.22;;;;;;;17.18;54.10;101896.00;4911896;28;124237;-64
2021/07/23 04:57:28;;;;;;;11.13;6.53;;;;;;;17.20;54.21;101891.44;4913831;28;124091;-64
2021/07/23 04:59:57;;;;;;;9.77;5.97;;;;;;;17.22;54.26;101886.00;4913948;28;120075;-64
2021/07/23 05:02:24;;;;;;;12.75;6.28;;;;;;;17.25;54.44;101889.38;4913545;28;119264;-64
2021/07/23 05:04:53;;;;;;;11.95;6.40;;;;;;;17.28;54.71;101891.84;4912789;28;124400;-64
2021/07/23 05:07:20;;;;;;;11.23;6.40;;;;;;;17.35;54.73;101896.84;4913388;28;123917;-65
2021/07/23 05:09:48;;;;;;;10.85;6.63;;;;;;;17.39;54.75;101890.41;4912913;28;118668;-64
2021/07/23 05:12:16;;;;;;;11.13;6.15;;;;;;;17.44;54.95;101896.31;4928497;28;118330;-64
2021/07/23 05:14:43;;;;;;;10.43;6.47;;;;;;;17.49;55.15;101888.91;4912675;28;124807;-64
2021/07/23 05:17:11;;;;;;;11.95;6.70;;;;;;;17.54;55.15;101897.53;4911420;28;124315;-64
2021/07/23 05:19:40;;;;;;;11.95;6.38;;;;;;;17.60;55.09;101897.19;4910814;28;119406;-64
2021/07/23 05:22:07;;;;;;;11.48;6.68;;;;;;;17.66;55.11;101895.97;4912746;28;118133;-64
2021/07/23 05:24:34;;;;;;;11.77;7.00;;;;;;;17.71;55.27;101900.09;4911261;28;124111;-64
2021/07/23 05:27:02;;;;;;;12.70;6.57;;;;;;;17.76;55.17;101898.97;4911904;28;123845;-64
2021/07/23 05:29:30;;;;;;;11.20;7.13;;;;;;;17.81;55.43;101888.84;4913177;28;120327;-64
2021/07/23 05:31:57;;;;;;;13.18;6.63;;;;;;;17.88;55.52;101892.94;4910529;28;120022;-64
2021/07/23 05:34:24;;;;;;;13.25;6.95;;;;;;;17.94;55.52;101884.53;4927151;28;123322;-64
2021/07/23 05:36:56;;;;;;;10.13;6.22;;;;;;;18.01;55.59;101891.25;4912061;28;123993;-64
2021/07/23 05:39:23;;;;;;;12.43;6.50;;;;;;;18.06;55.58;101899.88;4910624;28;119277;-64
2021/07/23 05:41:51;;;;;;;10.35;6.35;;;;;;;18.15;55.57;101892.22;4913048;28;119046;-64
2021/07/23 05:44:18;;;;;;;14.40;6.43;;;;;;;18.20;55.60;101885.63;4909148;28;124036;-64
2021/07/23 05:46:45;;;;;;;10.77;6.28;;;;;;;18.29;55.54;101884.22;4910734;28;123858;-64
2021/07/23 05:49:12;;;;;;;11.07;6.47;;;;;;;18.37;55.51;101887.28;4913564;28;119874;-64
2021/07/23 05:51:39;;;;;;;10.73;6.13;;;;;;;18.43;55.70;101884.22;4910219;28;119147;-64
2021/07/23 05:54:06;;;;;;;12.48;5.85;;;;;;;18.49;55.42;101885.66;4912205;28;124270;-64
2021/07/23 05:56:34;;;;;;;9.68;5.97;;;;;;;18.57;55.58;101882.50;4912796;28;123516;-64
2021/07/23 05:59:01;;;;;;;8.07;5.28;;;;;;;18.64;55.39;101881.16;4912221;28;119087;-64
2021/07/23 06:01:28;;;;;;;10.40;5.93;;;;;;;18.73;55.68;101883.28;4911206;28;119249;-64
2021/07/23 06:03:55;;;;;;;9.32;5.45;;;;;;;18.80;55.34;101884.66;4910886;28;124423;-64
2021/07/23 06:06:23;;;;;;;8.48;5.25;;;;;;;18.86;55.26;101876.19;4909694;28;124335;-64
2021/07/23 06:09:02;;;;;;;7.90;4.90;;;;;;;18.99;55.28;101883.50;4910091;28;120076;-64
2021/07/23 06:11:29;;;;;;;8.70;4.78;;;;;;;19.07;55.11;101881.16;4910263;28;119308;-64
2021/07/23 06:13:56;;;;;;;8.85;5.10;;;;;;;19.15;55.00;101884.19;4907976;28;124366;-63
2021/07/23 06:16:23;;;;;;;8.32;5.05;;;;;;;19.22;55.20;101880.16;4909438;28;124302;-64
2021/07/23 06:18:51;;;;;;;8.32;4.82;;;;;;;19.29;55.12;101880.63;4910001;28;120619;-64
2021/07/23 06:21:20;;;;;;;8.05;5.22;;;;;;;19.37;55.14;101888.19;4909744;28;120310;-64
2021/07/23 06:23:47;;;;;;;9.50;5.22;;;;;;;19.46;55.00;101882.22;4910598;28;123868;-64
2021/07/23 06:26:14;;;;;;;9.85;5.00;;;;;;;19.54;54.96;101885.25;4911740;28;122963;-64
2021/07/23 06:28:41;;;;;;;10.85;4.75;;;;;;;19.61;54.69;101881.19;4913120;28;120094;-64
2021/07/23 06:31:09;;;;;;;9.00;4.95;;;;;;;19.71;54.67;101877.91;4912309;28;119468;-64
2021/07/23 06:33:37;;;;;;;8.13;5.00;;;;;;;19.81;54.75;101876.31;4909137;28;124096;-64
2021/07/23 06:36:04;;;;;;;7.40;4.18;;;;;;;19.89;54.68;101879.38;4926912;28;124321;-64
2021/07/23 06:38:31;;;;;;;7.72;4.53;;;;;;;20.00;54.42;101882.19;4910695;28;119331;-64
2021/07/23 06:40:59;;;;;;;6.07;3.97;;;;;;;20.13;54.28;101881.34;4910349;28;118860;-64
2021/07/23 06:43:26;;;;;;;7.10;4.25;;;;;;;20.26;54.13;101879.50;4911378;28;124078;-64
2021/07/23 06:45:55;;;;;;;5.57;3.78;;;;;;;20.36;53.99;101880.63;4909185;28;124359;-64
2021/07/23 06:48:23;;;;;;;7.82;4.03;;;;;;;20.46;53.67;101872.75;4911855;28;120183;-64
2021/07/23 06:50:50;;;;;;;5.78;3.42;;;;;;;20.59;53.88;101878.13;4910948;28;118882;-64
2021/07/23 06:53:19;;;;;;;6.05;3.80;;;;;;;20.71;53.26;101871.88;4909900;28;123979;-64
2021/07/23 06:55:46;;;;;;;8.32;3.67;;;;;;;20.80;53.25;101882.00;4926877;28;123251;-64
2021/07/23 06:58:14;;;;;;;5.30;3.63;;;;;;;20.93;53.02;101881.13;4912007;28;120015;-65
2021/07/23 07:00:44;;;;;;;6.75;3.42;;;;;;;21.06;52.74;101886.47;4909808;28;119044;-64
2021/07/23 07:03:12;;;;;;;6.63;3.70;;;;;;;21.16;52.40;101882.13;4907890;28;124721;-64
2021/07/23 07:05:40;;;;;;;5.63;3.67;;;;;;;21.27;52.36;101889.44;4910426;28;124465;-64
2021/07/23 07:08:08;;;;;;;4.95;3.60;;;;;;;21.38;52.28;101886.81;4910788;28;120541;-64
2021/07/23 07:10:35;;;;;;;5.32;3.67;;;;;;;21.51;52.29;101887.66;4909002;28;119740;-64
2021/07/23 07:13:02;;;;;;;4.78;3.45;;;;;;;21.66;51.83;101890.16;4908898;28;124712;-64
2021/07/23 07:15:29;;;;;;;4.50;3.20;;;;;;;21.80;51.59;101887.28;4908341;28;124347;-64
2021/07/23 07:18:01;;;;;;;5.30;3.60;;;;;;;21.97;51.44;101889.53;4910753;28;120241;-64
2021/07/23 07:20:31;;;;;;;6.55;3.80;;;;;;;22.13;51.35;101888.34;4909239;28;119463;-64
2021/07/23 07:22:58;;;;;;;5.38;3.75;;;;;;;22.28;51.02;101883.63;4908891;28;123915;-64
2021/07/23 07:25:27;;;;;;;6.18;3.10;;;;;;;22.40;50.56;101889.94;4909107;28;124754;-64
2021/07/23 07:27:54;;;;;;;4.70;2.78;;;;;;;22.51;50.02;101881.84;4910702;28;119440;-64
2021/07/23 07:30:21;;;;;;;5.20;3.10;;;;;;;22.60;49.66;101888.34;4912314;28;119305;-64
2021/07/23 07:32:48;;;;;;;3.88;3.05;;;;;;;22.68;49.31;101889.44;4910521;28;124248;-64
2021/07/23 07:35:16;;;;;;;5.88;2.78;;;;;;;22.76;49.30;101885.28;4910435;28;124551;-64
2021/07/23 07:37:43;;;;;;;4.03;2.95;;;;;;;22.85;48.93;101884.50;4910230;28;120058;-64
2021/07/23 07:40:11;;;;;;;4.97;3.03;;;;;;;22.94;48.66;101883.78;4909908;28;118996;-65
2021/07/23 07:42:38;;;;;;;7.55;3.42;;;;;;;23.00;48.47;101877.91;4911428;28;124784;-64
2021/07/23 07:45:06;;;;;;;5.00;3.05;;;;;;;23.06;48.27;101877.41;4908026;28;124260;-64
2021/07/23 07:47:33;;;;;;;7.32;3.42;;;;;;;23.12;48.23;101882.31;4911164;28;119697;-63
2021/07/23 07:50:01;;;;;;;5.95;3.75;;;;;;;23.18;48.08;101874.69;4910051;28;119106;-68
2021/07/23 07:52:28;;;;;;;6.45;4.03;;;;;;;23.24;47.98;101874.19;4912600;28;124891;-70
2021/07/23 07:54:55;;;;;;;5.80;3.35;;;;;;;23.31;48.19;101875.41;4913939;28;124074;-68
2021/07/23 07:57:23;;;;;;;5.22;3.30;;;;;;;23.39;47.92;101872.91;4911323;28;121090;-68
2021/07/23 07:59:52;;;;;;;5.85;3.45;;;;;;;23.45;47.60;101867.00;4911854;28;119982;-68
2021/07/23 08:02:19;;;;;;;5.45;3.20;;;;;;;23.47;47.35;101867.72;4911861;28;124125;-68
2021/07/23 08:04:48;;;;;;;5.85;3.58;;;;;;;23.51;47.61;101865.63;4911457;28;123997;-68
2021/07/23 08:07:21;;;;;;;5.15;3.30;;;;;;;23.57;47.55;101864.25;4912549;28;119491;-68
2021/07/23 08:09:56;;;;;;;4.88;3.20;;;;;;;23.64;47.24;101860.03;4911834;28;118888;-68
2021/07/23 08:12:25;;;;;;;5.80;3.30;;;;;;;23.70;47.05;101854.13;4896472;28;124084;-69
2021/07/23 08:14:52;;;;;;;5.60;3.17;;;;;;;23.71;46.75;101862.13;4911336;28;123877;-63
2021/07/23 08:17:20;;;;;;;5.45;3.25;;;;;;;23.74;46.69;101860.13;4915062;28;119366;-63
2021/07/23 08:19:48;;;;;;;6.85;3.25;;;;;;;23.78;46.74;101851.59;4913388;28;119593;-63
2021/07/23 08:22:15;;;;;;;5.55;3.28;;;;;;;23.88;46.62;101858.00;4911127;28;124543;-63
2021/07/23 08:24:44;;;;;;;6.03;3.15;;;;;;;23.96;46.27;101853.75;4912177;28;122776;-63
2021/07/23 08:27:12;;;;;;;4.32;3.45;;;;;;;23.97;45.94;101850.06;4912535;28;119654;-63
2021/07/23 08:29:39;;;;;;;4.15;3.22;;;;;;;24.01;46.01;101856.94;4913234;28;118056;-63
2021/07/23 08:32:11;;;;;;;4.72;3.13;;;;;;;24.09;45.75;101849.00;4929948;28;124124;-63
2021/07/23 08:34:40;;;;;;;4.93;3.20;;;;;;;24.15;45.93;101856.59;4910440;28;124168;-63
2021/07/23 08:37:07;;;;;;;5.70;3.40;;;;;;;24.20;45.97;101857.03;4913330;28;118386;-63
2021/07/23 08:39:35;;;;;;;4.75;3.33;;;;;;;24.23;45.39;101856.78;4912261;28;118903;-63
2021/07/23 08:42:21;;;;;;;5.97;3.20;;;;;;;24.22;45.48;101849.69;4913214;28;124278;-63
2021/07/23 08:44:49;;;;;;;5.22;3.30;;;;;;;24.27;45.41;101852.81;4913392;28;124977;-63
2021/07/23 08:47:16;;;;;;;5.13;3.50;;;;;;;24.34;45.75;101846.88;4912134;28;119362;-63
2021/07/23 08:49:43;;;;;;;5.40;3.70;;;;;;;24.42;45.82;101860.59;4925759;28;119799;-63
2021/07/23 08:52:11;;;;;;;5.68;3.53;;;;;;;24.47;45.29;101852.94;4913004;28;123163;-63
2021/07/23 08:54:39;;;;;;;6.75;3.70;;;;;;;24.47;45.24;101850.22;4927738;28;123978;-63
2021/07/23 08:57:10;;;;;;;6.45;3.50;;;;;;;24.47;44.99;101847.50;4898796;28;119421;-63
2021/07/23 08:59:38;;;;;;;5.20;3.35;;;;;;;24.51;45.31;101838.13;4913201;28;119384;-63
2021/07/23 09:02:07;;;;;;;4.72;3.08;;;;;;;24.55;45.01;101842.28;4924304;28;124852;-63
2021/07/23 09:04:36;;;;;;;4.43;2.97;;;;;;;24.59;44.92;101843.72;4910622;28;123750;-63
2021/07/23 09:07:16;;;;;;;5.13;3.42;;;;;;;24.64;44.94;101838.78;4911550;28;119909;-63
2021/07/23 09:09:56;;;;;;;6.45;3.30;;;;;;;24.75;44.88;101834.22;4912600;28;119251;-63
2021/07/23 09:12:23;;;;;;;5.88;3.50;;;;;;;24.84;44.44;101825.28;4913375;28;123208;-63
2021/07/23 09:14:51;;;;;;;6.15;3.83;;;;;;;24.96;44.63;101832.31;4910649;28;124252;-63
2021/07/23 09:17:18;;;;;;;5.25;3.30;;;;;;;25.04;44.21;101829.75;4911717;28;119134;-63
2021/07/23 09:20:06;;;;;;;4.63;3.05;;;;;;;25.08;43.85;101821.34;4910952;28;118666;-63
2021/07/23 09:22:55;;;;;;;5.07;3.83;;;;;;;25.14;43.95;101818.91;4910468;28;123891;-63
2021/07/23 09:25:37;;;;;;;5.80;3.40;;;;;;;25.22;43.82;101815.50;4909911;28;123872;-63
2021/07/23 09:28:25;;;;;;;4.72;3.50;;;;;;;25.23;43.38;101822.69;4912336;28;120111;-63
2021/07/23 09:30:54;;;;;;;5.50;3.60;;;;;;;25.23;43.71;101811.84;4910742;28;119865;-63
2021/07/23 09:33:30;;;;;;;5.57;3.72;;;;;;;25.24;43.33;101814.41;4910399;28;124215;-63
2021/07/23 09:36:03;;;;;;;5.43;3.90;;;;;;;25.28;42.89;101809.56;4911563;28;122789;-63
2021/07/23 09:38:36;;;;;;;5.57;4.18;;;;;;;25.31;43.23;101803.84;4912273;28;120372;-63
2021/07/23 09:41:05;;;;;;;6.95;4.20;;;;;;;25.40;43.27;101808.41;4911063;28;120286;-63
2021/07/23 09:43:43;;;;;;;5.50;3.92;;;;;;;25.50;43.04;101802.13;4913282;28;124583;-63
2021/07/23 09:46:15;;;;;;;5.50;3.58;;;;;;;25.57;43.38;101797.84;4910001;28;124007;-63
2021/07/23 09:48:44;;;;;;;6.15;3.65;;;;;;;25.62;43.27;101792.84;4913086;28;119569;-63
2021/07/23 09:51:11;;;;;;;6.82;4.32;;;;;;;25.67;42.59;101787.81;4912295;28;119225;-63
2021/07/23 09:53:38;;;;;;;7.60;4.40;;;;;;;25.70;42.59;101782.13;4909654;28;123958;-63
2021/07/23 09:56:07;;;;;;;5.38;3.80;;;;;;;25.70;42.52;101776.69;4912072;28;123972;-63
2021/07/23 09:58:41;;;;;;;6.65;3.75;;;;;;;25.70;42.67;101776.69;4912765;28;119675;-63
2021/07/23 10:01:12;;;;;;;5.00;3.80;;;;;;;25.73;42.44;101781.84;4910269;28;119100;-63
2021/07/23 10:03:46;;;;;;;6.03;4.35;;;;;;;25.74;41.68;101775.38;4912106;28;124425;-63
2021/07/23 10:06:21;;;;;;;5.57;4.00;;;;;;;25.76;42.72;101781.53;4909614;28;124735;-63
2021/07/23 10:08:55;;;;;;;6.07;4.00;;;;;;;25.81;41.84;101767.53;4912882;28;119554;-63
2021/07/23 10:11:23;;;;;;;6.40;4.03;;;;;;;25.84;42.32;101761.78;4911331;28;119351;-63
2021/07/23 10:13:53;;;;;;;6.95;4.70;;;;;;;25.91;42.15;101762.06;4912843;28;124932;-63
2021/07/23 10:16:20;;;;;;;6.22;4.35;;;;;;;26.00;41.95;101769.38;4911638;28;123943;-63
2021/07/23 10:18:49;;;;;;;6.78;4.03;;;;;;;26.07;42.04;101762.34;4909875;28;119298;-63
2021/07/23 10:21:16;;;;;;;6.43;4.35;;;;;;;26.15;41.45;101759.72;4910201;28;118790;-63
2021/07/23 10:23:44;;;;;;;8.15;4.07;;;;;;;26.21;40.94;101769.16;4912400;28;124564;-63
2021/07/23 10:26:13;;;;;;;7.85;3.90;;;;;;;26.22;41.08;101760.84;4926927;28;124972;-63
2021/07/23 10:28:52;;;;;;;6.93;4.18;;;;;;;26.26;41.00;101760.53;4912150;28;120420;-63
2021/07/23 10:31:27;;;;;;;6.82;4.70;;;;;;;26.31;40.65;101758.22;4912368;28;119846;-63
2021/07/23 10:33:55;;;;;;;6.80;3.97;;;;;;;26.35;41.00;101765.06;4907528;28;124041;-63
2021/07/23 10:36:25;;;;;;;5.53;3.83;;;;;;;26.38;40.76;101759.34;4912627;28;124161;-63
2021/07/23 10:39:10;;;;;;;5.78;3.30;;;;;;;26.41;40.89;101764.50;4911442;28;120103;-63
2021/07/23 10:41:51;;;;;;;5.30;3.75;;;;;;;26.46;40.48;101755.88;4911145;28;119323;-64
2021/07/23 10:44:21;;;;;;;4.97;3.67;;;;;;;26.49;40.53;101750.16;4910480;28;123243;-63
2021/07/23 10:46:48;;;;;;;6.00;4.22;;;;;;;26.53;39.73;101757.84;4910087;28;124097;-64
2021/07/23 10:49:38;;;;;;;6.60;4.30;;;;;;;26.52;40.44;101738.97;4911085;28;119374;-64
2021/07/23 10:52:05;;;;;;;4.75;3.47;;;;;;;26.59;39.53;101740.94;4913871;28;119329;-63
2021/07/23 10:54:54;;;;;;;5.93;4.22;;;;;;;26.66;39.98;101734.94;4908041;28;124114;-63
2021/07/23 10:57:21;;;;;;;5.72;3.83;;;;;;;26.71;40.70;101735.31;4911559;28;123579;-63
2021/07/23 10:59:49;;;;;;;5.60;3.80;;;;;;;26.76;40.33;101728.41;4909433;28;120013;-63
2021/07/23 11:02:18;;;;;;;5.05;3.35;;;;;;;26.79;39.92;101730.81;4909320;28;119085;-63
2021/07/23 11:04:47;;;;;;;5.97;3.55;;;;;;;26.83;39.95;101728.66;4908309;28;124494;-63
2021/07/23 11:07:23;;;;;;;5.43;3.50;;;;;;;26.84;39.53;101727.63;4910082;28;123593;-63
2021/07/23 11:09:50;;;;;;;5.72;3.15;;;;;;;26.85;39.85;101723.06;4909170;28;119225;-63
2021/07/23 11:12:31;;;;;;;5.47;3.38;;;;;;;26.85;39.25;101726.63;4911496;28;118090;-63
2021/07/23 11:15:03;;;;;;;5.47;3.67;;;;;;;26.87;39.52;101721.88;4909441;28;124002;-63
2021/07/23 11:17:31;;;;;;;5.50;3.60;;;;;;;26.90;39.49;101721.59;4910577;28;124266;-69
2021/07/23 11:20:03;;;;;;;4.68;3.45;;;;;;;26.96;39.32;101710.09;4911505;28;121115;-69
2021/07/23 11:22:33;;;;;;;5.00;3.50;;;;;;;27.00;39.09;101702.47;4911154;28;120134;-69
2021/07/23 11:25:08;;;;;;;6.13;3.72;;;;;;;27.06;39.34;101709.16;4911480;28;124058;-69
2021/07/23 11:27:41;;;;;;;4.50;3.78;;;;;;;27.09;39.52;101698.81;4903524;28;123987;-69
2021/07/23 11:30:13;;;;;;;6.05;3.55;;;;;;;27.11;39.58;101701.38;4912635;28;119317;-69
2021/07/23 11:33:09;;;;;;;6.03;3.47;;;;;;;27.10;39.84;101694.22;4915125;28;117835;-69